sensor_id;sensor_type;location;lat;lon;timestamp;pressure;altitude;pressure_sealevel;temperature;humidity
26978;BME280;56314;48.088;11.642;2022-12-29T00:01:31;95289.63;;;2.45;71.94
26978;BME280;56314;48.088;11.642;2022-12-29T00:03:56;95279.09;;;2.49;71.13
26978;BME280;56314;48.088;11.642;2022-12-29T00:06:22;95275.25;;;2.57;71.39
26978;BME280;56314;48.088;11.642;2022-12-29T00:08:47;95264.09;;;2.55;70.35
26978;BME280;56314;48.088;11.642;2022-12-29T00:11:16;95277.69;;;2.60;68.94
26978;BME280;56314;48.088;11.642;2022-12-29T00:13:42;95270.97;;;2.56;69.65
26978;BME280;56314;48.088;11.642;2022-12-29T00:16:27;95269.28;;;2.55;69.55
26978;BME280;56314;48.088;11.642;2022-12-29T00:18:52;95267.94;;;2.66;68.83
26978;BME280;56314;48.088;11.642;2022-12-29T00:21:20;95262.19;;;2.59;69.84
26978;BME280;56314;48.088;11.642;2022-12-29T00:24:04;95268.50;;;2.53;69.47
26978;BME280;56314;48.088;11.642;2022-12-29T00:29:43;95259.91;;;2.53;69.88
26978;BME280;56314;48.088;11.642;2022-12-29T00:32:27;95264.28;;;2.52;70.43
26978;BME280;56314;48.088;11.642;2022-12-29T00:35:18;95262.06;;;2.62;70.20
26978;BME280;56314;48.088;11.642;2022-12-29T00:37:47;95255.13;;;2.63;69.54
26978;BME280;56314;48.088;11.642;2022-12-29T00:40:31;95259.78;;;2.56;69.54
26978;BME280;56314;48.088;11.642;2022-12-29T00:43:15;95251.09;;;2.57;69.07
26978;BME280;56314;48.088;11.642;2022-12-29T00:45:59;95250.22;;;2.56;69.65
26978;BME280;56314;48.088;11.642;2022-12-29T00:48:24;95250.38;;;2.53;70.06
26978;BME280;56314;48.088;11.642;2022-12-29T00:51:08;95249.47;;;2.54;69.58
26978;BME280;56314;48.088;11.642;2022-12-29T00:53:33;95250.59;;;2.49;69.89
26978;BME280;56314;48.088;11.642;2022-12-29T00:55:59;95241.34;;;2.43;69.94
26978;BME280;56314;48.088;11.642;2022-12-29T00:58:29;95254.03;;;2.49;70.43
26978;BME280;56314;48.088;11.642;2022-12-29T01:01:05;95254.94;;;2.48;69.18
26978;BME280;56314;48.088;11.642;2022-12-29T01:03:30;95257.00;;;2.41;68.82
26978;BME280;56314;48.088;11.642;2022-12-29T01:05:56;95255.22;;;2.42;69.65
26978;BME280;56314;48.088;11.642;2022-12-29T01:08:21;95254.47;;;2.40;69.35
26978;BME280;56314;48.088;11.642;2022-12-29T01:13:29;95253.72;;;2.38;68.79
26978;BME280;56314;48.088;11.642;2022-12-29T01:15:55;95265.03;;;2.35;69.05
26978;BME280;56314;48.088;11.642;2022-12-29T01:18:21;95257.91;;;2.40;68.92
26978;BME280;56314;48.088;11.642;2022-12-29T01:20:47;95252.63;;;2.42;69.10
26978;BME280;56314;48.088;11.642;2022-12-29T01:23:13;95266.81;;;2.35;68.92
26978;BME280;56314;48.088;11.642;2022-12-29T01:25:38;95262.09;;;2.43;68.49
26978;BME280;56314;48.088;11.642;2022-12-29T01:28:04;95257.06;;;2.40;68.62
26978;BME280;56314;48.088;11.642;2022-12-29T01:30:29;95267.44;;;2.40;68.78
26978;BME280;56314;48.088;11.642;2022-12-29T01:32:55;95266.59;;;2.39;68.93
26978;BME280;56314;48.088;11.642;2022-12-29T01:35:20;95270.09;;;2.38;68.67
26978;BME280;56314;48.088;11.642;2022-12-29T01:37:46;95266.44;;;2.42;68.39
26978;BME280;56314;48.088;11.642;2022-12-29T01:40:11;95272.47;;;2.43;68.47
26978;BME280;56314;48.088;11.642;2022-12-29T01:42:37;95272.09;;;2.51;68.61
26978;BME280;56314;48.088;11.642;2022-12-29T01:45:13;95263.72;;;2.45;68.42
26978;BME280;56314;48.088;11.642;2022-12-29T01:48:15;95265.59;;;2.42;68.50
26978;BME280;56314;48.088;11.642;2022-12-29T01:50:39;95266.31;;;2.45;68.09
26978;BME280;56314;48.088;11.642;2022-12-29T01:53:12;95265.53;;;2.43;67.78
26978;BME280;56314;48.088;11.642;2022-12-29T01:55:48;95267.22;;;2.44;68.63
26978;BME280;56314;48.088;11.642;2022-12-29T01:58:15;95265.31;;;2.48;68.45
26978;BME280;56314;48.088;11.642;2022-12-29T02:00:43;95258.69;;;2.42;68.33
26978;BME280;56314;48.088;11.642;2022-12-29T02:03:09;95256.63;;;2.49;68.56
26978;BME280;56314;48.088;11.642;2022-12-29T02:05:37;95255.09;;;2.45;68.21
26978;BME280;56314;48.088;11.642;2022-12-29T02:08:04;95257.41;;;2.51;67.80
26978;BME280;56314;48.088;11.642;2022-12-29T02:10:32;95258.72;;;2.41;67.87
26978;BME280;56314;48.088;11.642;2022-12-29T02:12:59;95250.34;;;2.36;68.84
26978;BME280;56314;48.088;11.642;2022-12-29T02:18:29;95248.19;;;2.26;68.38
26978;BME280;56314;48.088;11.642;2022-12-29T02:26:54;95250.69;;;2.28;68.82
26978;BME280;56314;48.088;11.642;2022-12-29T02:32:26;95248.53;;;2.38;68.08
26978;BME280;56314;48.088;11.642;2022-12-29T02:35:03;95253.03;;;2.34;68.12
26978;BME280;56314;48.088;11.642;2022-12-29T02:37:51;95256.13;;;2.41;68.58
26978;BME280;56314;48.088;11.642;2022-12-29T02:43:05;95263.13;;;2.58;67.00
26978;BME280;56314;48.088;11.642;2022-12-29T02:45:43;95258.66;;;2.61;66.65
26978;BME280;56314;48.088;11.642;2022-12-29T02:48:18;95258.56;;;2.63;66.72
26978;BME280;56314;48.088;11.642;2022-12-29T02:51:04;95252.88;;;2.74;65.93
26978;BME280;56314;48.088;11.642;2022-12-29T02:53:34;95248.00;;;2.85;65.03
26978;BME280;56314;48.088;11.642;2022-12-29T02:56:19;95242.50;;;2.91;64.03
26978;BME280;56314;48.088;11.642;2022-12-29T02:58:44;95241.28;;;2.99;63.93
26978;BME280;56314;48.088;11.642;2022-12-29T03:09:54;95232.81;;;3.30;62.38
26978;BME280;56314;48.088;11.642;2022-12-29T03:12:30;95228.34;;;3.32;61.91
26978;BME280;56314;48.088;11.642;2022-12-29T03:15:24;95227.63;;;3.30;62.21
26978;BME280;56314;48.088;11.642;2022-12-29T03:18:14;95217.94;;;3.50;60.93
26978;BME280;56314;48.088;11.642;2022-12-29T03:20:54;95215.75;;;3.42;61.61
26978;BME280;56314;48.088;11.642;2022-12-29T03:23:22;95211.91;;;3.49;61.31
26978;BME280;56314;48.088;11.642;2022-12-29T03:25:52;95205.88;;;3.49;60.79
26978;BME280;56314;48.088;11.642;2022-12-29T03:28:22;95208.88;;;3.41;61.82
26978;BME280;56314;48.088;11.642;2022-12-29T03:30:49;95209.94;;;3.37;61.95
26978;BME280;56314;48.088;11.642;2022-12-29T03:33:22;95202.09;;;3.38;62.37
26978;BME280;56314;48.088;11.642;2022-12-29T03:35:50;95207.53;;;3.34;62.41
26978;BME280;56314;48.088;11.642;2022-12-29T03:38:27;95211.56;;;3.39;61.89
26978;BME280;56314;48.088;11.642;2022-12-29T03:40:57;95197.34;;;3.47;61.18
26978;BME280;56314;48.088;11.642;2022-12-29T03:43:24;95203.53;;;3.44;61.63
26978;BME280;56314;48.088;11.642;2022-12-29T03:45:50;95199.44;;;3.56;61.54
26978;BME280;56314;48.088;11.642;2022-12-29T03:48:16;95203.81;;;3.56;60.95
26978;BME280;56314;48.088;11.642;2022-12-29T03:50:41;95198.13;;;3.65;60.32
26978;BME280;56314;48.088;11.642;2022-12-29T03:53:06;95197.75;;;3.55;61.33
26978;BME280;56314;48.088;11.642;2022-12-29T03:55:32;95195.88;;;3.59;60.89
26978;BME280;56314;48.088;11.642;2022-12-29T03:57:57;95198.06;;;3.66;60.54
26978;BME280;56314;48.088;11.642;2022-12-29T04:00:22;95196.47;;;3.80;60.10
26978;BME280;56314;48.088;11.642;2022-12-29T04:02:48;95200.69;;;3.82;59.93
26978;BME280;56314;48.088;11.642;2022-12-29T04:05:13;95196.25;;;3.84;60.08
26978;BME280;56314;48.088;11.642;2022-12-29T04:07:39;95192.28;;;3.93;58.88
26978;BME280;56314;48.088;11.642;2022-12-29T04:10:04;95196.00;;;3.89;59.95
26978;BME280;56314;48.088;11.642;2022-12-29T04:12:30;95195.81;;;3.92;59.54
26978;BME280;56314;48.088;11.642;2022-12-29T04:14:55;95200.19;;;4.08;59.00
26978;BME280;56314;48.088;11.642;2022-12-29T04:17:20;95190.88;;;4.20;58.64
26978;BME280;56314;48.088;11.642;2022-12-29T04:19:45;95190.94;;;4.18;58.12
26978;BME280;56314;48.088;11.642;2022-12-29T04:22:11;95195.88;;;4.23;58.07
26978;BME280;56314;48.088;11.642;2022-12-29T04:24:37;95196.38;;;4.29;57.43
26978;BME280;56314;48.088;11.642;2022-12-29T04:27:02;95195.03;;;4.38;57.85
26978;BME280;56314;48.088;11.642;2022-12-29T04:29:28;95192.53;;;4.37;57.30
26978;BME280;56314;48.088;11.642;2022-12-29T04:31:53;95194.78;;;4.43;57.36
26978;BME280;56314;48.088;11.642;2022-12-29T04:34:18;95185.91;;;4.47;57.10
26978;BME280;56314;48.088;11.642;2022-12-29T04:36:44;95195.38;;;4.48;56.67
26978;BME280;56314;48.088;11.642;2022-12-29T04:39:09;95190.84;;;4.52;56.71
26978;BME280;56314;48.088;11.642;2022-12-29T04:41:34;95184.38;;;4.43;58.00
26978;BME280;56314;48.088;11.642;2022-12-29T04:44:00;95186.13;;;4.58;56.49
26978;BME280;56314;48.088;11.642;2022-12-29T04:46:25;95183.78;;;4.54;57.53
26978;BME280;56314;48.088;11.642;2022-12-29T04:48:50;95183.78;;;4.54;57.99
26978;BME280;56314;48.088;11.642;2022-12-29T04:51:16;95186.06;;;4.44;58.74
26978;BME280;56314;48.088;11.642;2022-12-29T04:53:41;95184.53;;;4.40;58.37
26978;BME280;56314;48.088;11.642;2022-12-29T04:56:07;95184.97;;;4.48;58.06
26978;BME280;56314;48.088;11.642;2022-12-29T04:58:33;95169.72;;;4.42;58.21
26978;BME280;56314;48.088;11.642;2022-12-29T05:00:58;95170.81;;;4.38;58.58
26978;BME280;56314;48.088;11.642;2022-12-29T05:03:23;95167.00;;;4.59;58.08
26978;BME280;56314;48.088;11.642;2022-12-29T05:05:49;95181.25;;;4.68;57.55
26978;BME280;56314;48.088;11.642;2022-12-29T05:08:14;95175.34;;;4.65;57.56
26978;BME280;56314;48.088;11.642;2022-12-29T05:10:40;95173.78;;;4.62;57.74
26978;BME280;56314;48.088;11.642;2022-12-29T05:13:05;95177.97;;;4.65;57.48
26978;BME280;56314;48.088;11.642;2022-12-29T05:15:30;95168.09;;;4.55;58.38
26978;BME280;56314;48.088;11.642;2022-12-29T05:17:56;95175.06;;;4.55;58.04
26978;BME280;56314;48.088;11.642;2022-12-29T05:20:21;95175.63;;;4.60;57.58
26978;BME280;56314;48.088;11.642;2022-12-29T05:22:47;95174.22;;;4.54;58.32
26978;BME280;56314;48.088;11.642;2022-12-29T05:25:12;95184.34;;;4.59;58.16
26978;BME280;56314;48.088;11.642;2022-12-29T05:27:37;95182.00;;;4.54;58.64
26978;BME280;56314;48.088;11.642;2022-12-29T05:30:03;95192.09;;;4.60;58.13
26978;BME280;56314;48.088;11.642;2022-12-29T05:32:29;95193.22;;;4.71;57.45
26978;BME280;56314;48.088;11.642;2022-12-29T05:34:54;95189.06;;;4.68;57.52
26978;BME280;56314;48.088;11.642;2022-12-29T05:37:19;95188.38;;;4.65;57.97
26978;BME280;56314;48.088;11.642;2022-12-29T05:39:44;95178.06;;;4.63;58.29
26978;BME280;56314;48.088;11.642;2022-12-29T05:42:10;95182.66;;;4.58;58.41
26978;BME280;56314;48.088;11.642;2022-12-29T05:44:35;95178.59;;;4.54;58.59
26978;BME280;56314;48.088;11.642;2022-12-29T05:47:01;95180.16;;;4.56;58.81
26978;BME280;56314;48.088;11.642;2022-12-29T05:49:26;95178.16;;;4.61;59.00
26978;BME280;56314;48.088;11.642;2022-12-29T05:51:51;95181.31;;;4.67;57.76
26978;BME280;56314;48.088;11.642;2022-12-29T05:54:17;95179.09;;;4.60;58.68
26978;BME280;56314;48.088;11.642;2022-12-29T05:56:42;95174.69;;;4.61;58.29
26978;BME280;56314;48.088;11.642;2022-12-29T05:59:07;95179.09;;;4.60;59.35
26978;BME280;56314;48.088;11.642;2022-12-29T06:01:32;95175.47;;;4.63;59.31
26978;BME280;56314;48.088;11.642;2022-12-29T06:03:59;95174.47;;;4.80;59.15
26978;BME280;56314;48.088;11.642;2022-12-29T06:06:25;95173.94;;;4.75;58.90
26978;BME280;56314;48.088;11.642;2022-12-29T06:08:50;95181.91;;;4.72;58.83
26978;BME280;56314;48.088;11.642;2022-12-29T06:11:15;95174.59;;;4.78;57.84
26978;BME280;56314;48.088;11.642;2022-12-29T06:13:41;95177.34;;;4.75;58.16
26978;BME280;56314;48.088;11.642;2022-12-29T06:16:07;95175.84;;;4.71;57.71
26978;BME280;56314;48.088;11.642;2022-12-29T06:18:32;95179.84;;;4.77;57.56
26978;BME280;56314;48.088;11.642;2022-12-29T06:21:03;95177.34;;;4.75;58.53
26978;BME280;56314;48.088;11.642;2022-12-29T06:23:28;95178.44;;;4.71;58.43
26978;BME280;56314;48.088;11.642;2022-12-29T06:25:54;95174.28;;;4.69;58.81
26978;BME280;56314;48.088;11.642;2022-12-29T06:28:20;95176.22;;;4.65;58.66
26978;BME280;56314;48.088;11.642;2022-12-29T06:30:45;95175.34;;;4.65;58.80
26978;BME280;56314;48.088;11.642;2022-12-29T06:33:11;95177.53;;;4.72;58.91
26978;BME280;56314;48.088;11.642;2022-12-29T06:35:37;95186.25;;;4.71;59.05
26978;BME280;56314;48.088;11.642;2022-12-29T06:38:02;95172.41;;;4.71;58.86
26978;BME280;56314;48.088;11.642;2022-12-29T06:40:28;95180.50;;;4.66;58.68
26978;BME280;56314;48.088;11.642;2022-12-29T06:42:53;95180.63;;;4.79;58.35
26978;BME280;56314;48.088;11.642;2022-12-29T06:45:18;95184.50;;;4.72;58.12
26978;BME280;56314;48.088;11.642;2022-12-29T06:47:44;95187.66;;;4.77;58.12
26978;BME280;56314;48.088;11.642;2022-12-29T06:50:09;95179.84;;;4.77;57.70
26978;BME280;56314;48.088;11.642;2022-12-29T06:52:34;95185.81;;;4.79;57.75
26978;BME280;56314;48.088;11.642;2022-12-29T06:55:00;95191.88;;;4.80;57.73
26978;BME280;56314;48.088;11.642;2022-12-29T06:57:25;95181.25;;;4.83;57.51
26978;BME280;56314;48.088;11.642;2022-12-29T06:59:51;95186.75;;;4.78;57.61
26978;BME280;56314;48.088;11.642;2022-12-29T07:02:17;95196.53;;;4.89;57.00
26978;BME280;56314;48.088;11.642;2022-12-29T07:04:44;95199.97;;;4.89;57.52
26978;BME280;56314;48.088;11.642;2022-12-29T07:07:09;95204.84;;;4.96;57.47
26978;BME280;56314;48.088;11.642;2022-12-29T07:09:35;95204.47;;;5.02;56.32
26978;BME280;56314;48.088;11.642;2022-12-29T07:12:00;95196.75;;;5.00;57.52
26978;BME280;56314;48.088;11.642;2022-12-29T07:14:26;95198.31;;;5.03;57.30
26978;BME280;56314;48.088;11.642;2022-12-29T07:16:51;95206.63;;;5.09;58.32
26978;BME280;56314;48.088;11.642;2022-12-29T07:19:17;95202.25;;;5.10;56.51
26978;BME280;56314;48.088;11.642;2022-12-29T07:21:42;95221.41;;;5.09;56.72
26978;BME280;56314;48.088;11.642;2022-12-29T07:24:08;95206.72;;;5.08;56.95
26978;BME280;56314;48.088;11.642;2022-12-29T07:26:34;95225.88;;;5.07;56.65
26978;BME280;56314;48.088;11.642;2022-12-29T07:29:01;95219.03;;;5.20;56.00
26978;BME280;56314;48.088;11.642;2022-12-29T07:31:27;95217.53;;;5.31;56.55
26978;BME280;56314;48.088;11.642;2022-12-29T07:33:52;95240.13;;;5.30;56.56
26978;BME280;56314;48.088;11.642;2022-12-29T07:36:17;95228.25;;;5.41;55.57
26978;BME280;56314;48.088;11.642;2022-12-29T07:38:43;95237.75;;;5.56;55.25
26978;BME280;56314;48.088;11.642;2022-12-29T07:41:08;95235.72;;;5.61;55.61
26978;BME280;56314;48.088;11.642;2022-12-29T07:43:34;95232.06;;;5.64;55.51
26978;BME280;56314;48.088;11.642;2022-12-29T07:46:00;95230.03;;;5.69;55.10
26978;BME280;56314;48.088;11.642;2022-12-29T07:48:25;95223.34;;;5.79;54.34
26978;BME280;56314;48.088;11.642;2022-12-29T07:50:51;95231.97;;;5.80;54.05
26978;BME280;56314;48.088;11.642;2022-12-29T07:53:17;95230.69;;;5.73;54.10
26978;BME280;56314;48.088;11.642;2022-12-29T07:55:42;95227.22;;;5.72;54.07
26978;BME280;56314;48.088;11.642;2022-12-29T07:58:08;95230.97;;;5.68;54.48
26978;BME280;56314;48.088;11.642;2022-12-29T08:00:33;95229.38;;;5.65;54.73
26978;BME280;56314;48.088;11.642;2022-12-29T08:02:59;95236.66;;;5.75;54.49
26978;BME280;56314;48.088;11.642;2022-12-29T08:05:24;95228.63;;;5.78;54.25
26978;BME280;56314;48.088;11.642;2022-12-29T08:07:49;95233.84;;;5.78;54.87
26978;BME280;56314;48.088;11.642;2022-12-29T08:10:15;95237.75;;;5.85;54.20
26978;BME280;56314;48.088;11.642;2022-12-29T08:12:41;95240.25;;;5.86;54.13
26978;BME280;56314;48.088;11.642;2022-12-29T08:15:08;95240.25;;;5.86;53.78
26978;BME280;56314;48.088;11.642;2022-12-29T08:17:34;95245.13;;;5.93;53.75
26978;BME280;56314;48.088;11.642;2022-12-29T08:19:59;95246.16;;;6.05;54.21
26978;BME280;56314;48.088;11.642;2022-12-29T08:22:25;95245.75;;;5.96;54.49
26978;BME280;56314;48.088;11.642;2022-12-29T08:24:50;95238.88;;;5.95;54.25
26978;BME280;56314;48.088;11.642;2022-12-29T08:27:16;95240.88;;;6.06;54.29
26978;BME280;56314;48.088;11.642;2022-12-29T08:29:41;95232.19;;;6.20;53.49
26978;BME280;56314;48.088;11.642;2022-12-29T08:32:07;95239.13;;;6.20;53.63
26978;BME280;56314;48.088;11.642;2022-12-29T08:34:32;95236.28;;;6.24;53.84
26978;BME280;56314;48.088;11.642;2022-12-29T08:36:58;95237.50;;;6.19;53.20
26978;BME280;56314;48.088;11.642;2022-12-29T08:39:23;95236.09;;;6.13;53.16
26978;BME280;56314;48.088;11.642;2022-12-29T08:41:48;95239.88;;;6.22;53.14
26978;BME280;56314;48.088;11.642;2022-12-29T08:44:14;95242.13;;;6.28;53.22
26978;BME280;56314;48.088;11.642;2022-12-29T08:46:39;95246.28;;;6.45;53.36
26978;BME280;56314;48.088;11.642;2022-12-29T08:49:05;95237.13;;;6.52;52.85
26978;BME280;56314;48.088;11.642;2022-12-29T08:51:30;95242.44;;;6.78;52.18
26978;BME280;56314;48.088;11.642;2022-12-29T08:53:55;95235.81;;;7.00;51.46
26978;BME280;56314;48.088;11.642;2022-12-29T08:56:21;95240.25;;;7.12;51.12
26978;BME280;56314;48.088;11.642;2022-12-29T08:58:48;95236.31;;;7.19;50.31
26978;BME280;56314;48.088;11.642;2022-12-29T09:01:14;95242.91;;;7.25;50.61
26978;BME280;56314;48.088;11.642;2022-12-29T09:03:39;95234.44;;;7.47;50.38
26978;BME280;56314;48.088;11.642;2022-12-29T09:06:04;95234.03;;;7.66;50.57
26978;BME280;56314;48.088;11.642;2022-12-29T09:08:30;95238.28;;;8.06;49.12
26978;BME280;56314;48.088;11.642;2022-12-29T09:11:05;95233.25;;;8.29;48.09
26978;BME280;56314;48.088;11.642;2022-12-29T09:13:31;95235.59;;;8.45;48.32
26978;BME280;56314;48.088;11.642;2022-12-29T09:15:59;95234.63;;;8.59;47.90
26978;BME280;56314;48.088;11.642;2022-12-29T09:18:25;95232.25;;;8.80;46.77
26978;BME280;56314;48.088;11.642;2022-12-29T09:20:59;95233.03;;;9.29;45.51
26978;BME280;56314;48.088;11.642;2022-12-29T09:23:25;95229.97;;;9.35;45.07
26978;BME280;56314;48.088;11.642;2022-12-29T09:25:50;95241.66;;;9.43;44.14
26978;BME280;56314;48.088;11.642;2022-12-29T09:28:16;95240.69;;;9.44;42.98
26978;BME280;56314;48.088;11.642;2022-12-29T09:30:41;95245.00;;;9.45;42.53
26978;BME280;56314;48.088;11.642;2022-12-29T09:33:07;95239.28;;;9.51;42.04
26978;BME280;56314;48.088;11.642;2022-12-29T09:35:32;95235.69;;;9.40;41.90
26978;BME280;56314;48.088;11.642;2022-12-29T09:37:57;95236.19;;;9.46;41.83
26978;BME280;56314;48.088;11.642;2022-12-29T09:40:29;95237.47;;;9.40;42.06
26978;BME280;56314;48.088;11.642;2022-12-29T09:45:49;95238.19;;;10.78;39.05
26978;BME280;56314;48.088;11.642;2022-12-29T09:48:28;95232.09;;;11.43;38.20
26978;BME280;56314;48.088;11.642;2022-12-29T09:50:57;95217.63;;;12.83;34.85
26978;BME280;56314;48.088;11.642;2022-12-29T09:53:38;95209.59;;;13.43;33.70
26978;BME280;56314;48.088;11.642;2022-12-29T09:56:13;95196.81;;;13.09;33.54
26978;BME280;56314;48.088;11.642;2022-12-29T10:01:28;95198.22;;;11.71;35.21
26978;BME280;56314;48.088;11.642;2022-12-29T10:03:56;95207.41;;;11.13;36.50
26978;BME280;56314;48.088;11.642;2022-12-29T10:06:27;95199.03;;;10.87;36.86
26978;BME280;56314;48.088;11.642;2022-12-29T10:09:22;95193.63;;;10.56;37.17
26978;BME280;56314;48.088;11.642;2022-12-29T10:20:31;95201.31;;;10.13;37.93
26978;BME280;56314;48.088;11.642;2022-12-29T10:23:10;95178.06;;;10.09;38.29
26978;BME280;56314;48.088;11.642;2022-12-29T10:25:41;95177.44;;;10.05;37.95
26978;BME280;56314;48.088;11.642;2022-12-29T10:31:09;95185.41;;;10.26;36.54
26978;BME280;56314;48.088;11.642;2022-12-29T10:33:40;95191.97;;;10.32;36.77
26978;BME280;56314;48.088;11.642;2022-12-29T10:36:19;95194.97;;;10.27;37.14
26978;BME280;56314;48.088;11.642;2022-12-29T10:42:04;95191.25;;;10.53;36.91
26978;BME280;56314;48.088;11.642;2022-12-29T10:44:34;95189.63;;;10.73;36.59
26978;BME280;56314;48.088;11.642;2022-12-29T10:47:05;95195.50;;;10.98;36.41
26978;BME280;56314;48.088;11.642;2022-12-29T10:49:38;95184.59;;;11.35;36.02
26978;BME280;56314;48.088;11.642;2022-12-29T10:52:04;95170.00;;;11.52;35.10
26978;BME280;56314;48.088;11.642;2022-12-29T10:54:53;95159.00;;;11.58;34.62
26978;BME280;56314;48.088;11.642;2022-12-29T10:57:28;95162.72;;;11.86;35.10
26978;BME280;56314;48.088;11.642;2022-12-29T10:59:57;95157.69;;;12.05;33.90
26978;BME280;56314;48.088;11.642;2022-12-29T11:05:21;95134.53;;;12.59;33.49
26978;BME280;56314;48.088;11.642;2022-12-29T11:07:50;95131.50;;;12.73;32.43
26978;BME280;56314;48.088;11.642;2022-12-29T11:10:41;95132.16;;;13.15;32.22
26978;BME280;56314;48.088;11.642;2022-12-29T11:13:16;95127.78;;;13.63;31.91
26978;BME280;56314;48.088;11.642;2022-12-29T11:15:43;95125.50;;;13.78;30.77
26978;BME280;56314;48.088;11.642;2022-12-29T11:18:42;95123.91;;;13.95;30.73
26978;BME280;56314;48.088;11.642;2022-12-29T11:24:03;95110.66;;;15.05;28.50
26978;BME280;56314;48.088;11.642;2022-12-29T11:26:30;95111.19;;;15.27;28.67
26978;BME280;56314;48.088;11.642;2022-12-29T11:29:21;95107.78;;;15.16;28.14
26978;BME280;56314;48.088;11.642;2022-12-29T11:31:53;95109.13;;;14.76;28.72
26978;BME280;56314;48.088;11.642;2022-12-29T11:34:23;95107.91;;;14.24;29.45
26978;BME280;56314;48.088;11.642;2022-12-29T11:36:52;95117.78;;;14.22;30.14
26978;BME280;56314;48.088;11.642;2022-12-29T11:39:55;95105.06;;;14.36;29.54
26978;BME280;56314;48.088;11.642;2022-12-29T11:45:20;95097.75;;;15.20;28.30
26978;BME280;56314;48.088;11.642;2022-12-29T11:50:52;95091.16;;;15.50;27.55
26978;BME280;56314;48.088;11.642;2022-12-29T11:53:25;95088.97;;;15.72;27.83
26978;BME280;56314;48.088;11.642;2022-12-29T11:55:57;95085.34;;;15.47;26.69
26978;BME280;56314;48.088;11.642;2022-12-29T11:58:34;95086.94;;;15.39;27.14
26978;BME280;56314;48.088;11.642;2022-12-29T12:01:26;95089.81;;;15.20;27.51
26978;BME280;56314;48.088;11.642;2022-12-29T12:04:03;95109.53;;;14.53;27.71
26978;BME280;56314;48.088;11.642;2022-12-29T12:06:32;95106.94;;;14.25;28.23
26978;BME280;56314;48.088;11.642;2022-12-29T12:09:07;95096.81;;;13.93;29.62
26978;BME280;56314;48.088;11.642;2022-12-29T12:11:39;95099.47;;;13.65;30.61
26978;BME280;56314;48.088;11.642;2022-12-29T12:16:40;95106.63;;;13.05;31.12
26978;BME280;56314;48.088;11.642;2022-12-29T12:19:31;95103.88;;;12.77;31.94
26978;BME280;56314;48.088;11.642;2022-12-29T12:22:15;95104.44;;;12.61;32.22
26978;BME280;56314;48.088;11.642;2022-12-29T12:24:47;95099.03;;;12.43;32.68
26978;BME280;56314;48.088;11.642;2022-12-29T12:30:07;95090.16;;;12.25;33.16
26978;BME280;56314;48.088;11.642;2022-12-29T12:32:47;95085.66;;;12.15;33.72
26978;BME280;56314;48.088;11.642;2022-12-29T12:40:48;95085.94;;;12.03;35.10
26978;BME280;56314;48.088;11.642;2022-12-29T12:43:26;95078.34;;;12.09;34.36
26978;BME280;56314;48.088;11.642;2022-12-29T12:48:42;95085.75;;;11.94;34.99
26978;BME280;56314;48.088;11.642;2022-12-29T12:51:38;95078.22;;;12.21;35.11
26978;BME280;56314;48.088;11.642;2022-12-29T12:57:16;95073.13;;;12.78;33.85
26978;BME280;56314;48.088;11.642;2022-12-29T13:08:19;95067.28;;;12.65;35.01
26978;BME280;56314;48.088;11.642;2022-12-29T13:16:36;95064.38;;;12.58;34.71
26978;BME280;56314;48.088;11.642;2022-12-29T13:19:40;95068.66;;;12.49;35.57
26978;BME280;56314;48.088;11.642;2022-12-29T13:27:26;95064.50;;;12.17;35.66
26978;BME280;56314;48.088;11.642;2022-12-29T13:30:05;95064.47;;;12.07;35.93
26978;BME280;56314;48.088;11.642;2022-12-29T13:32:58;95053.81;;;11.99;36.39
26978;BME280;56314;48.088;11.642;2022-12-29T13:38:46;95063.16;;;11.92;36.54
26978;BME280;56314;48.088;11.642;2022-12-29T13:41:27;95056.94;;;11.83;36.99
26978;BME280;56314;48.088;11.642;2022-12-29T13:43:55;95062.19;;;11.83;37.38
26978;BME280;56314;48.088;11.642;2022-12-29T13:46:27;95071.84;;;11.73;37.27
26978;BME280;56314;48.088;11.642;2022-12-29T13:48:58;95067.94;;;11.67;37.31
26978;BME280;56314;48.088;11.642;2022-12-29T13:51:25;95071.56;;;11.66;37.43
26978;BME280;56314;48.088;11.642;2022-12-29T13:54:14;95073.03;;;11.59;37.65
26978;BME280;56314;48.088;11.642;2022-12-29T13:57:10;95076.84;;;11.45;38.41
26978;BME280;56314;48.088;11.642;2022-12-29T13:59:44;95083.88;;;11.34;39.15
26978;BME280;56314;48.088;11.642;2022-12-29T14:02:19;95083.56;;;11.28;39.65
26978;BME280;56314;48.088;11.642;2022-12-29T14:05:01;95089.31;;;11.21;39.66
26978;BME280;56314;48.088;11.642;2022-12-29T14:07:28;95081.00;;;11.16;39.58
26978;BME280;56314;48.088;11.642;2022-12-29T14:09:55;95074.59;;;11.09;39.67
26978;BME280;56314;48.088;11.642;2022-12-29T14:15:22;95089.13;;;10.92;39.03
26978;BME280;56314;48.088;11.642;2022-12-29T14:18:18;95084.19;;;10.77;39.07
26978;BME280;56314;48.088;11.642;2022-12-29T14:23:41;95078.56;;;10.61;39.67
26978;BME280;56314;48.088;11.642;2022-12-29T14:28:41;95085.06;;;10.45;40.69
26978;BME280;56314;48.088;11.642;2022-12-29T14:33:41;95093.78;;;10.35;40.85
26978;BME280;56314;48.088;11.642;2022-12-29T14:36:34;95094.88;;;10.32;41.33
26978;BME280;56314;48.088;11.642;2022-12-29T14:39:00;95094.41;;;10.27;41.49
26978;BME280;56314;48.088;11.642;2022-12-29T14:41:38;95096.34;;;10.25;41.77
26978;BME280;56314;48.088;11.642;2022-12-29T14:46:44;95089.91;;;10.06;44.00
26978;BME280;56314;48.088;11.642;2022-12-29T14:49:16;95091.00;;;10.04;42.85
26978;BME280;56314;48.088;11.642;2022-12-29T14:51:43;95093.16;;;9.98;43.66
26978;BME280;56314;48.088;11.642;2022-12-29T14:54:41;95101.66;;;9.91;44.04
26978;BME280;56314;48.088;11.642;2022-12-29T14:57:15;95097.97;;;9.82;44.79
26978;BME280;56314;48.088;11.642;2022-12-29T14:59:44;95103.56;;;9.77;43.93
26978;BME280;56314;48.088;11.642;2022-12-29T15:02:21;95108.69;;;9.67;45.15
26978;BME280;56314;48.088;11.642;2022-12-29T15:04:47;95110.38;;;9.57;44.48
26978;BME280;56314;48.088;11.642;2022-12-29T15:07:13;95103.94;;;9.50;46.24